Time;durP1;ratioP1;P1;durP2;ratioP2;P2;SDS_P1;SDS_P2;PMS_P1;PMS_P2;Temp;Humidity;BMP_temperature;BMP_pressure;BME280_temperature;BME280_humidity;BME280_pressure;Samples;Min_cycle;Max_cycle;Signal;HPM_P1;HPM_P2
2024/03/21 00:03:03;;;;;;;4.95;1.50;;;;;;;10.74;62.23;100587.41;10404523;28;20043;-59
2024/03/21 00:08:04;;;;;;;6.45;1.88;;;;;;;10.73;62.28;100591.13;10403574;28;20061;-58
2024/03/21 00:13:05;;;;;;;4.40;1.52;;;;;;;10.72;62.49;100578.66;10404149;28;20037;-59
2024/03/21 00:18:05;;;;;;;4.05;1.67;;;;;;;10.71;62.10;100583.22;10402623;28;20551;-58
2024/03/21 00:23:06;;;;;;;2.70;1.55;;;;;;;10.67;62.48;100568.44;10399902;28;20048;-59
2024/03/21 00:28:06;;;;;;;4.07;1.90;;;;;;;10.60;62.41;100586.25;10402962;28;20073;-59
2024/03/21 00:33:07;;;;;;;5.95;1.77;;;;;;;10.54;62.82;100584.25;10402674;28;20038;-59
2024/03/21 00:38:07;;;;;;;5.30;1.98;;;;;;;10.55;62.66;100579.75;10401771;28;20400;-58
2024/03/21 00:43:08;;;;;;;3.55;1.85;;;;;;;10.53;62.55;100577.22;10403328;28;20097;-58
2024/03/21 00:48:08;;;;;;;3.20;1.67;;;;;;;10.50;62.76;100573.03;10406284;28;20049;-58
2024/03/21 00:53:09;;;;;;;2.67;1.75;;;;;;;10.49;62.75;100575.88;10400859;28;20033;-59
2024/03/21 00:58:10;;;;;;;3.88;1.67;;;;;;;10.48;62.98;100572.31;10403453;28;20033;-59
2024/03/21 01:03:11;;;;;;;5.20;1.80;;;;;;;10.48;62.96;100571.50;10402255;28;20046;-58
2024/03/21 01:08:11;;;;;;;6.72;1.83;;;;;;;10.45;63.11;100561.09;10403570;28;20045;-59
2024/03/21 01:13:12;;;;;;;5.70;1.70;;;;;;;10.39;63.02;100557.25;10406963;28;20439;-59
2024/03/21 01:18:13;;;;;;;5.68;1.95;;;;;;;10.32;62.91;100567.81;10397521;28;20060;-59
2024/03/21 01:23:13;;;;;;;3.65;1.60;;;;;;;10.26;63.20;100573.81;10407765;28;20045;-59
2024/03/21 01:28:14;;;;;;;3.95;1.65;;;;;;;10.19;63.72;100571.97;10409430;28;20049;-58
2024/03/21 01:33:14;;;;;;;5.63;2.00;;;;;;;10.13;63.31;100558.22;10411388;28;20071;-58
2024/03/21 01:38:15;;;;;;;3.20;1.67;;;;;;;10.13;63.58;100563.59;10408703;28;20049;-59
2024/03/21 01:43:21;;;;;;;3.47;1.42;;;;;;;10.07;63.54;100555.34;10409865;28;20049;-58
2024/03/21 01:48:22;;;;;;;4.90;2.10;;;;;;;10.08;63.62;100554.38;10410614;28;20565;-59
2024/03/21 01:53:25;;;;;;;8.52;1.95;;;;;;;10.00;63.69;100559.75;10411312;28;20041;-59
2024/03/21 01:58:26;;;;;;;4.25;1.38;;;;;;;9.90;63.46;100568.78;10409497;28;20040;-59
2024/03/21 02:03:26;;;;;;;5.43;1.60;;;;;;;9.85;64.12;100572.97;10410905;28;20049;-59
2024/03/21 02:08:28;;;;;;;4.28;1.60;;;;;;;9.81;64.15;100574.31;10406322;28;20111;-58
2024/03/21 02:13:28;;;;;;;6.03;1.80;;;;;;;9.79;63.81;100561.03;10407120;28;20041;-59
2024/03/21 02:18:29;;;;;;;2.25;1.50;;;;;;;9.79;64.04;100560.22;10408125;28;20037;-58
2024/03/21 02:23:29;;;;;;;4.40;2.10;;;;;;;9.73;64.13;100565.25;10404499;28;20045;-58
2024/03/21 02:28:30;;;;;;;6.35;3.58;;;;;;;9.70;64.25;100562.88;10411794;28;20040;-58
2024/03/21 02:33:30;;;;;;;17.25;7.95;;;;;;;9.61;64.56;100565.72;10407200;28;20041;-58
2024/03/21 02:38:31;;;;;;;11.35;6.45;;;;;;;9.57;64.64;100570.56;10406096;28;20143;-59
2024/03/21 02:43:31;;;;;;;10.13;5.80;;;;;;;9.57;64.47;100564.38;10405435;28;20412;-58
2024/03/21 02:48:33;;;;;;;7.47;2.92;;;;;;;9.55;64.55;100577.09;10403847;28;20056;-59
2024/03/21 02:53:34;;;;;;;11.05;1.83;;;;;;;9.49;64.89;100578.59;10402707;28;20447;-59
2024/03/21 02:58:34;;;;;;;4.90;1.83;;;;;;;9.55;64.72;100577.09;10414662;28;20072;-58
2024/03/21 03:03:35;;;;;;;3.60;2.15;;;;;;;9.65;64.58;100575.94;10404242;28;20064;-58
2024/03/21 03:08:35;;;;;;;2.67;1.60;;;;;;;9.70;64.60;100575.47;10407619;28;20033;-58
2024/03/21 03:13:36;;;;;;;3.15;2.25;;;;;;;9.69;64.75;100579.97;10404586;28;20047;-58
2024/03/21 03:18:36;;;;;;;4.35;1.55;;;;;;;9.73;64.64;100573.31;10404828;28;20053;-58
2024/03/21 03:23:37;;;;;;;7.35;2.28;;;;;;;9.70;64.64;100573.63;10405365;28;20041;-59
2024/03/21 03:28:37;;;;;;;3.70;2.03;;;;;;;9.66;64.51;100571.44;10407387;28;20082;-59
2024/03/21 03:38:57;;;;;;;2.38;1.30;;;;;;;9.59;64.89;100579.28;10408948;28;20120;-57
2024/03/21 03:43:58;;;;;;;4.15;1.73;;;;;;;9.61;64.77;100574.59;10408891;28;20107;-58
2024/03/21 03:48:58;;;;;;;4.15;1.63;;;;;;;9.63;64.81;100579.81;10408477;28;20128;-57
2024/03/21 03:53:59;;;;;;;4.72;2.55;;;;;;;9.61;64.95;100579.97;10411491;28;20095;-57
2024/03/21 03:58:59;;;;;;;5.28;2.13;;;;;;;9.60;64.87;100575.63;10402834;28;20098;-57
2024/03/21 04:04:00;;;;;;;6.00;2.35;;;;;;;9.62;64.78;100565.56;10408144;28;20557;-57
2024/03/21 04:09:00;;;;;;;4.07;1.58;;;;;;;9.62;64.88;100567.41;10406949;28;20041;-58
2024/03/21 04:14:01;;;;;;;6.90;2.10;;;;;;;9.52;65.11;100570.25;10404987;28;20041;-58
2024/03/21 04:19:01;;;;;;;2.88;1.77;;;;;;;9.49;64.93;100570.56;10403635;28;20100;-57
2024/03/21 04:24:01;;;;;;;2.47;1.77;;;;;;;9.49;65.17;100567.88;10403473;28;20519;-58
2024/03/21 04:29:03;;;;;;;6.57;1.65;;;;;;;9.45;65.10;100574.56;10404347;28;20478;-57
2024/03/21 04:34:04;;;;;;;3.20;1.73;;;;;;;9.48;65.38;100571.56;10406159;28;20041;-57
2024/03/21 04:39:04;;;;;;;3.35;1.83;;;;;;;9.49;65.29;100579.44;10404865;28;20993;-57
2024/03/21 04:44:05;;;;;;;4.13;1.65;;;;;;;9.49;65.43;100589.34;10402180;28;20207;-57
2024/03/21 04:49:05;;;;;;;3.25;2.20;;;;;;;9.52;65.55;100597.06;10401656;28;20051;-59
2024/03/21 04:54:06;;;;;;;5.47;2.72;;;;;;;9.49;65.44;100595.53;10401449;28;20033;-58
2024/03/21 04:59:08;;;;;;;2.45;1.60;;;;;;;9.56;65.35;100587.69;10399763;28;20041;-57
2024/03/21 05:04:09;;;;;;;5.13;2.55;;;;;;;9.61;65.03;100592.56;10402065;28;20060;-57
2024/03/21 05:09:09;;;;;;;5.43;2.72;;;;;;;9.65;65.26;100591.22;10407216;28;20052;-58
2024/03/21 05:14:10;;;;;;;4.63;2.33;;;;;;;9.65;65.22;100593.91;10406091;28;20041;-57
2024/03/21 05:19:14;;;;;;;3.55;2.42;;;;;;;9.59;65.52;100599.94;10404342;28;20098;-57
2024/03/21 05:24:14;;;;;;;5.10;2.47;;;;;;;9.52;65.82;100602.44;10404703;28;20049;-59
2024/03/21 05:29:14;;;;;;;4.32;2.47;;;;;;;9.58;65.45;100611.66;10400832;28;20148;-59
2024/03/21 05:34:15;;;;;;;3.97;2.67;;;;;;;9.64;65.48;100619.09;10401570;28;20786;-59
2024/03/21 05:39:16;;;;;;;4.50;2.05;;;;;;;9.69;65.47;100635.53;10404816;28;20439;-59
2024/03/21 05:44:16;;;;;;;6.85;2.22;;;;;;;9.76;65.27;100630.34;10402440;28;20510;-59
2024/03/21 05:49:17;;;;;;;5.47;2.97;;;;;;;9.78;65.37;100629.19;10406919;28;20095;-61
2024/03/21 05:54:17;;;;;;;4.50;2.45;;;;;;;9.84;65.38;100643.78;10398238;28;20126;-67
2024/03/21 05:59:18;;;;;;;10.98;4.55;;;;;;;9.90;65.27;100656.56;10421579;28;20056;-64
2024/03/21 06:04:18;;;;;;;6.70;3.13;;;;;;;9.98;65.27;100648.53;10395378;28;20684;-67
2024/03/21 06:09:21;;;;;;;3.15;2.25;;;;;;;10.00;65.44;100638.44;10405029;28;20033;-66
2024/03/21 06:14:22;;;;;;;5.35;2.40;;;;;;;10.06;65.20;100648.53;10412991;28;20042;-68
2024/03/21 06:19:22;;;;;;;7.38;3.75;;;;;;;10.11;65.50;100648.88;10405846;28;20052;-65
2024/03/21 06:24:23;;;;;;;6.20;3.47;;;;;;;10.12;65.63;100655.09;10410535;28;20033;-65
2024/03/21 06:29:27;;;;;;;8.40;3.47;;;;;;;10.27;65.54;100658.81;10422193;28;20046;-67
2024/03/21 06:34:27;;;;;;;4.30;3.10;;;;;;;10.40;65.23;100657.50;10406913;28;20041;-65
2024/03/21 06:39:28;;;;;;;8.40;3.75;;;;;;;10.43;65.62;100684.06;10414501;28;20045;-60
2024/03/21 06:44:29;;;;;;;11.18;4.35;;;;;;;10.54;65.45;100674.81;10402732;28;20393;-60
2024/03/21 06:49:29;;;;;;;9.68;4.80;;;;;;;10.81;65.19;100687.06;10412002;28;20113;-60
2024/03/21 06:54:32;;;;;;;10.75;3.78;;;;;;;11.05;64.64;100686.19;10404387;28;20045;-60
2024/03/21 06:59:32;;;;;;;5.60;3.35;;;;;;;11.24;64.83;100679.63;10402842;28;20041;-61
2024/03/21 07:04:32;;;;;;;7.78;4.32;;;;;;;11.44;64.28;100682.75;10406575;28;20040;-67
2024/03/21 07:09:33;;;;;;;5.95;4.50;;;;;;;11.65;64.30;100687.53;10410257;28;20512;-66
2024/03/21 07:14:33;;;;;;;10.60;5.55;;;;;;;11.87;63.69;100694.03;10403638;28;20418;-65
2024/03/21 07:19:34;;;;;;;9.40;5.53;;;;;;;12.14;63.89;100691.88;10406751;28;20045;-63
2024/03/21 07:24:34;;;;;;;9.73;5.82;;;;;;;12.34;63.67;100708.41;10402141;28;20103;-63
2024/03/21 07:29:35;;;;;;;12.35;6.00;;;;;;;12.49;63.38;100718.25;10407509;28;20430;-64
2024/03/21 07:34:36;;;;;;;10.10;6.57;;;;;;;12.56;63.27;100721.09;10402751;28;20041;-65
2024/03/21 07:39:36;;;;;;;13.05;7.32;;;;;;;12.66;63.49;100726.25;10400947;28;20038;-66
2024/03/21 07:44:37;;;;;;;8.23;6.03;;;;;;;12.66;63.13;100729.75;10404327;28;20056;-63
2024/03/21 07:49:38;;;;;;;15.30;7.43;;;;;;;12.78;62.99;100732.03;10401062;28;20510;-66
2024/03/21 07:54:39;;;;;;;14.07;7.25;;;;;;;13.01;62.42;100735.56;10410045;28;20516;-64
2024/03/21 07:59:39;;;;;;;12.40;6.90;;;;;;;13.15;62.56;100746.53;10406242;28;20041;-63
2024/03/21 08:04:40;;;;;;;12.80;7.00;;;;;;;13.35;62.50;100739.66;10407207;28;20051;-65
2024/03/21 08:09:40;;;;;;;7.53;5.50;;;;;;;13.71;62.12;100735.38;10400779;28;20140;-67
2024/03/21 08:14:41;;;;;;;9.38;5.70;;;;;;;14.03;62.08;100743.06;10398581;28;20476;-60
2024/03/21 08:19:45;;;;;;;10.20;7.03;;;;;;;14.32;61.45;100759.44;10404644;28;20064;-60
2024/03/21 08:24:45;;;;;;;11.05;7.57;;;;;;;14.52;61.55;100757.78;10405175;28;20385;-60
2024/03/21 08:29:49;;;;;;;11.85;6.78;;;;;;;14.70;61.14;100761.94;10404407;28;20056;-61
2024/03/21 08:34:50;;;;;;;11.18;7.68;;;;;;;14.96;60.97;100766.75;10399051;28;20041;-60
2024/03/21 08:39:51;;;;;;;10.73;7.05;;;;;;;15.19;60.74;100764.69;10419559;28;20153;-60
2024/03/21 08:44:54;;;;;;;17.63;7.90;;;;;;;15.40;60.54;100766.50;10404383;28;20053;-60
2024/03/21 08:49:55;;;;;;;15.57;7.95;;;;;;;15.48;60.31;100760.06;10403594;28;20092;-61
2024/03/21 08:54:55;;;;;;;8.82;6.57;;;;;;;15.52;60.17;100750.53;10402194;28;20049;-60
2024/03/21 08:59:56;;;;;;;24.80;12.65;;;;;;;15.69;60.10;100761.06;10397350;28;20053;-60
2024/03/21 09:04:56;;;;;;;21.77;12.70;;;;;;;15.73;59.79;100765.06;10401524;28;20045;-60
2024/03/21 09:09:57;;;;;;;32.25;15.20;;;;;;;16.02;59.48;100781.06;10400606;28;20041;-61
2024/03/21 09:14:57;;;;;;;25.60;16.35;;;;;;;16.30;58.85;100782.84;10384012;28;20044;-60
2024/03/21 09:19:58;;;;;;;26.98;17.10;;;;;;;16.42;58.17;100783.94;10403761;28;20087;-60
2024/03/21 09:24:58;;;;;;;31.52;18.23;;;;;;;16.71;57.78;100781.09;10401066;28;20099;-60
2024/03/21 09:29:59;;;;;;;30.05;18.30;;;;;;;16.73;57.08;100789.88;10403779;28;20041;-59
2024/03/21 09:34:59;;;;;;;31.48;18.95;;;;;;;16.72;56.31;100794.44;10398934;28;20103;-59
2024/03/21 09:40:00;;;;;;;32.10;18.63;;;;;;;16.75;55.89;100804.09;10400299;28;20447;-60
2024/03/21 09:45:02;;;;;;;31.27;19.70;;;;;;;16.65;55.31;100818.06;10403575;28;20047;-59
2024/03/21 09:50:02;;;;;;;29.73;19.17;;;;;;;16.71;54.83;100825.38;10410154;28;20041;-60
2024/03/21 09:55:12;;;;;;;35.53;19.85;;;;;;;16.76;54.64;100827.47;10408114;28;20107;-59
2024/03/21 10:00:15;;;;;;;38.30;21.38;;;;;;;16.65;54.16;100820.78;10408795;28;20056;-59
2024/03/21 10:05:24;;;;;;;36.53;19.77;;;;;;;16.56;54.44;100808.41;10408149;28;20049;-59
2024/03/21 10:10:26;;;;;;;42.10;21.90;;;;;;;16.51;53.98;100790.03;10423053;28;20893;-59
2024/03/21 10:15:27;;;;;;;41.85;20.92;;;;;;;16.81;53.64;100805.97;10405672;28;20523;-59
2024/03/21 10:20:27;;;;;;;29.63;15.43;;;;;;;20.71;44.14;100782.31;10409583;28;20051;-60
2024/03/21 10:25:28;;;;;;;20.13;11.10;;;;;;;24.18;37.19;100790.53;10403142;28;20040;-61
2024/03/21 10:30:29;;;;;;;17.17;9.25;;;;;;;26.69;33.31;100798.75;10409948;28;20103;-60
2024/03/21 10:35:32;;;;;;;15.02;6.60;;;;;;;27.37;30.95;100833.63;10406899;28;20087;-62
2024/03/21 10:40:33;;;;;;;16.77;8.13;;;;;;;27.40;30.92;100838.59;10404723;28;20053;-62
2024/03/21 10:45:34;;;;;;;8.13;4.97;;;;;;;27.97;29.98;100844.88;10404300;28;20056;-63
2024/03/21 10:50:34;;;;;;;7.53;3.72;;;;;;;28.27;29.26;100857.78;10403707;28;20049;-62
2024/03/21 10:55:44;;;;;;;10.45;6.03;;;;;;;25.45;32.45;100873.56;10390609;28;20083;-63
2024/03/21 11:00:55;;;;;;;10.52;6.32;;;;;;;22.26;37.85;100905.41;10412317;28;20045;-62
2024/03/21 11:05:56;;;;;;;14.00;6.50;;;;;;;20.54;41.36;100904.19;10402879;28;20052;-61
2024/03/21 11:10:58;;;;;;;8.75;4.72;;;;;;;20.93;40.84;100893.81;10407145;28;20107;-61
2024/03/21 11:15:58;;;;;;;5.47;3.15;;;;;;;22.23;38.44;100896.78;10399007;28;20037;-62
2024/03/21 11:20:59;;;;;;;7.75;4.10;;;;;;;23.82;35.92;100889.72;10399521;28;20038;-62
2024/03/21 11:25:59;;;;;;;7.38;4.60;;;;;;;25.88;32.78;100896.47;10406253;28;20418;-61
2024/03/21 11:31:02;;;;;;;8.40;5.20;;;;;;;23.84;36.29;100906.78;10408274;28;20416;-62
2024/03/21 11:36:03;;;;;;;8.95;4.68;;;;;;;26.77;31.38;100921.53;10400489;28;20040;-63
2024/03/21 11:41:04;;;;;;;5.68;3.20;;;;;;;26.65;30.15;100910.72;10407487;28;20049;-63
2024/03/21 11:46:04;;;;;;;7.30;4.20;;;;;;;27.49;28.73;100910.69;10409710;28;20051;-63
2024/03/21 11:51:05;;;;;;;10.35;5.00;;;;;;;27.09;28.69;100907.56;10399921;28;20041;-62
2024/03/21 11:56:05;;;;;;;13.23;6.43;;;;;;;28.85;27.17;100909.00;10404792;28;20076;-63
2024/03/21 12:01:06;;;;;;;8.90;5.63;;;;;;;29.05;26.99;100927.44;10405682;28;20203;-63
2024/03/21 12:06:09;;;;;;;9.38;5.63;;;;;;;27.31;29.03;100917.53;10386456;28;20408;-62
2024/03/21 12:11:15;;;;;;;18.08;7.00;;;;;;;24.54;33.02;100931.97;10402482;28;20737;-62
2024/03/21 12:16:17;;;;;;;9.98;6.38;;;;;;;24.43;32.71;100932.91;10406449;28;20447;-63
2024/03/21 12:21:19;;;;;;;10.55;6.80;;;;;;;25.61;30.94;100939.75;10406380;28;20499;-63
2024/03/21 12:26:20;;;;;;;10.10;6.68;;;;;;;28.96;27.12;100929.97;10407620;28;20492;-63
2024/03/21 12:31:20;;;;;;;6.68;4.97;;;;;;;28.40;27.20;100930.19;10392263;28;20068;-64
2024/03/21 12:36:21;;;;;;;7.40;4.88;;;;;;;29.73;25.86;100928.66;10410357;28;20048;-62
2024/03/21 12:41:22;;;;;;;6.78;5.20;;;;;;;29.15;24.60;100932.09;10407046;28;20071;-62
2024/03/21 12:46:22;;;;;;;5.80;4.68;;;;;;;30.08;24.54;100933.06;10379726;28;20153;-62
2024/03/21 12:51:24;;;;;;;5.82;4.72;;;;;;;29.24;23.89;100944.25;10377761;28;20049;-63
2024/03/21 12:56:25;;;;;;;7.22;4.40;;;;;;;29.01;24.96;100932.72;10375797;28;20389;-68
2024/03/21 13:01:25;;;;;;;5.07;4.28;;;;;;;29.88;23.96;100936.00;10365319;28;20045;-67
2024/03/21 13:06:26;;;;;;;6.53;4.80;;;;;;;28.99;24.58;100931.34;10385023;28;20092;-67
2024/03/21 13:11:31;;;;;;;5.80;4.43;;;;;;;27.74;25.12;100939.38;10384512;28;20117;-64
2024/03/21 13:16:31;;;;;;;6.70;4.07;;;;;;;26.68;27.44;100953.50;10384531;28;20049;-67
2024/03/21 13:21:31;;;;;;;8.85;5.60;;;;;;;26.17;27.85;100958.72;10389956;28;20112;-67
2024/03/21 13:26:32;;;;;;;6.88;4.40;;;;;;;25.28;29.31;100960.94;10387975;28;20049;-66
2024/03/21 13:31:33;;;;;;;8.52;5.53;;;;;;;25.11;28.95;100967.31;10395050;28;20046;-63
2024/03/21 13:36:34;;;;;;;10.48;5.05;;;;;;;24.98;29.24;100950.38;10391587;28;20053;-66
2024/03/21 13:41:34;;;;;;;9.90;5.90;;;;;;;25.68;28.02;100941.22;10390842;28;20052;-66
2024/03/21 13:46:35;;;;;;;7.18;5.35;;;;;;;26.35;27.34;100955.50;10394320;28;20060;-67
2024/03/21 13:51:35;;;;;;;10.45;6.63;;;;;;;24.87;29.49;100960.44;10402641;28;20041;-63
2024/03/21 13:56:36;;;;;;;9.23;6.25;;;;;;;25.16;28.93;100962.97;10391389;28;20049;-66
2024/03/21 14:01:36;;;;;;;8.18;6.28;;;;;;;25.74;27.97;100950.34;10418304;28;20045;-67
2024/03/21 14:06:38;;;;;;;7.93;6.55;;;;;;;25.78;28.46;100956.16;10397876;28;20046;-65
2024/03/21 14:11:38;;;;;;;8.57;5.88;;;;;;;26.33;28.10;100952.19;10398233;28;20049;-67
2024/03/21 14:16:39;;;;;;;9.65;5.97;;;;;;;27.85;26.07;100939.09;10404364;28;20049;-67
2024/03/21 14:21:40;;;;;;;10.52;6.72;;;;;;;28.41;25.60;100932.66;10418163;28;20056;-67
2024/03/21 14:26:40;;;;;;;8.65;7.28;;;;;;;25.66;28.73;100948.09;10388269;28;20042;-67
2024/03/21 14:31:41;;;;;;;12.32;8.00;;;;;;;24.17;30.64;100938.06;10399650;28;20092;-63
2024/03/21 14:36:42;;;;;;;10.30;7.25;;;;;;;23.15;31.83;100932.47;10399720;28;20038;-66
2024/03/21 14:41:43;;;;;;;9.60;6.90;;;;;;;22.63;32.31;100942.63;10406747;28;20060;-66
2024/03/21 14:46:43;;;;;;;9.95;7.07;;;;;;;21.48;33.98;100936.59;10418811;28;20049;-64
2024/03/21 14:51:44;;;;;;;10.55;7.15;;;;;;;20.99;34.99;100932.03;10417955;28;20064;-66
2024/03/21 14:56:46;;;;;;;11.07;6.65;;;;;;;21.49;34.35;100936.38;10413360;28;20095;-64
2024/03/21 15:01:46;;;;;;;10.88;7.32;;;;;;;21.57;34.49;100943.41;10419448;28;20049;-66
2024/03/21 15:06:47;;;;;;;11.25;6.72;;;;;;;21.24;34.89;100919.28;10413792;28;20037;-64
2024/03/21 15:11:48;;;;;;;9.35;7.35;;;;;;;20.85;35.59;100935.16;10410192;28;20049;-64
2024/03/21 15:16:48;;;;;;;10.70;6.90;;;;;;;20.31;36.13;100949.38;10411228;28;20080;-59
2024/03/21 15:21:49;;;;;;;12.70;6.93;;;;;;;20.07;36.67;100934.72;10411124;28;20080;-59
2024/03/21 15:26:50;;;;;;;8.18;5.20;;;;;;;19.96;36.94;100944.50;10406482;28;20041;-59
2024/03/21 15:31:50;;;;;;;7.50;5.07;;;;;;;19.43;37.34;100947.56;10406693;28;20043;-59
2024/03/21 15:36:51;;;;;;;8.55;5.57;;;;;;;19.19;38.57;100957.38;10406175;28;20052;-60
2024/03/21 15:41:51;;;;;;;8.90;5.97;;;;;;;19.00;39.46;100959.16;10404174;28;20042;-59
2024/03/21 15:46:52;;;;;;;10.82;5.95;;;;;;;18.95;39.80;100964.41;10400990;28;20033;-59
2024/03/21 15:51:52;;;;;;;11.43;6.63;;;;;;;18.38;41.28;100970.44;10399484;28;20044;-60
2024/03/21 15:56:53;;;;;;;10.90;6.90;;;;;;;18.14;41.56;100966.47;10402110;28;20743;-59
2024/03/21 16:01:53;;;;;;;10.43;6.25;;;;;;;17.80;41.86;100972.94;10397007;28;20041;-59
2024/03/21 16:06:54;;;;;;;8.48;5.57;;;;;;;17.63;42.25;100986.09;10401137;28;20047;-60
2024/03/21 16:11:54;;;;;;;10.43;6.25;;;;;;;17.66;42.09;100979.41;10400895;28;20049;-59
2024/03/21 16:16:55;;;;;;;14.18;5.57;;;;;;;17.66;41.99;100984.84;10404228;28;20037;-60
2024/03/21 16:21:55;;;;;;;5.95;4.30;;;;;;;17.44;41.89;100980.41;10399547;28;20090;-60
2024/03/21 16:26:56;;;;;;;7.35;5.20;;;;;;;17.57;42.16;100985.03;10402594;28;20052;-62
2024/03/21 16:31:57;;;;;;;7.65;4.93;;;;;;;17.44;42.51;100980.41;10400162;28;20052;-62
2024/03/21 16:36:57;;;;;;;6.82;4.35;;;;;;;17.34;42.51;100990.84;10402540;28;20482;-62
2024/03/21 16:42:00;;;;;;;9.75;5.38;;;;;;;17.26;42.65;100988.31;10403270;28;21017;-62
2024/03/21 16:47:01;;;;;;;9.68;5.43;;;;;;;17.09;43.07;100989.72;10403353;28;20045;-62
2024/03/21 16:52:03;;;;;;;8.95;6.30;;;;;;;16.88;43.30;100983.34;10405451;28;20037;-62
2024/03/21 16:57:04;;;;;;;12.40;7.85;;;;;;;16.75;43.77;100994.13;10401569;28;20099;-63
2024/03/21 17:02:04;;;;;;;10.32;7.85;;;;;;;16.63;43.93;101004.72;10405733;28;20091;-63
2024/03/21 17:07:04;;;;;;;14.40;8.25;;;;;;;16.60;44.04;101005.09;10402857;28;20044;-62
2024/03/21 17:12:05;;;;;;;14.98;9.93;;;;;;;16.40;45.03;101004.97;10402322;28;20041;-63
2024/03/21 17:17:07;;;;;;;15.38;10.43;;;;;;;16.41;44.93;101001.22;10404315;28;21054;-63
2024/03/21 17:22:08;;;;;;;14.38;9.38;;;;;;;16.28;44.93;101009.28;10403598;28;20037;-63
2024/03/21 17:27:10;;;;;;;12.70;8.45;;;;;;;16.18;45.45;101009.63;10399727;28;20069;-62
2024/03/21 17:32:10;;;;;;;13.02;8.68;;;;;;;16.12;45.28;101007.72;10403158;28;20040;-62
2024/03/21 17:37:12;;;;;;;9.98;7.60;;;;;;;16.07;45.36;101000.13;10403466;28;20041;-59
2024/03/21 17:42:12;;;;;;;10.02;7.07;;;;;;;16.04;45.41;101001.38;10401912;28;20462;-59
2024/03/21 17:47:13;;;;;;;11.65;6.75;;;;;;;15.91;45.93;101012.09;10401088;28;20095;-58
2024/03/21 17:52:13;;;;;;;11.65;6.07;;;;;;;15.84;45.84;101022.06;10402386;28;20045;-57
2024/03/21 17:57:14;;;;;;;7.85;5.60;;;;;;;15.72;46.17;101034.41;10400300;28;20057;-58
2024/03/21 18:02:14;;;;;;;8.50;5.00;;;;;;;15.63;46.20;101036.41;10399538;28;20857;-58
2024/03/21 18:07:15;;;;;;;7.90;4.80;;;;;;;15.59;46.49;101043.25;10393903;28;20456;-57
2024/03/21 18:12:15;;;;;;;6.78;4.40;;;;;;;15.51;46.45;101051.50;10410365;28;20619;-58
2024/03/21 18:17:16;;;;;;;10.68;5.20;;;;;;;15.37;46.73;101045.91;10391542;28;20049;-58
2024/03/21 18:22:16;;;;;;;8.82;4.30;;;;;;;15.33;46.88;101041.09;10406809;28;20558;-58
2024/03/21 18:27:17;;;;;;;7.70;4.63;;;;;;;15.26;46.97;101044.56;10411328;28;20103;-58
2024/03/21 18:32:17;;;;;;;6.75;4.22;;;;;;;15.21;47.04;101049.69;10405719;28;20096;-57
2024/03/21 18:37:18;;;;;;;7.63;4.65;;;;;;;15.17;47.02;101053.81;10407213;28;20080;-58
2024/03/21 18:42:18;;;;;;;8.55;4.93;;;;;;;15.13;46.85;101051.69;10405406;28;20111;-59
2024/03/21 18:47:19;;;;;;;7.40;4.28;;;;;;;15.08;47.18;101058.47;10404287;28;20045;-60
2024/03/21 18:52:19;;;;;;;8.25;4.20;;;;;;;15.07;46.96;101058.69;10405329;28;20044;-60
2024/03/21 18:57:20;;;;;;;6.45;4.07;;;;;;;15.03;46.88;101052.78;10407571;28;20049;-61
2024/03/21 19:02:21;;;;;;;9.13;5.05;;;;;;;14.97;47.03;101049.97;10408894;28;20049;-60
2024/03/21 19:07:21;;;;;;;5.45;3.63;;;;;;;14.80;47.09;101063.72;10404527;28;20044;-61
2024/03/21 19:12:22;;;;;;;5.82;3.75;;;;;;;14.77;46.95;101065.94;10393841;28;20060;-61
2024/03/21 19:17:23;;;;;;;5.07;3.50;;;;;;;14.64;46.99;101072.00;10385170;28;20555;-60
2024/03/21 19:22:24;;;;;;;6.90;3.38;;;;;;;14.54;47.30;101066.00;10402789;28;20084;-60
2024/03/21 19:27:25;;;;;;;6.97;4.10;;;;;;;14.47;47.49;101064.03;10408741;28;20045;-60
2024/03/21 19:32:26;;;;;;;5.80;3.97;;;;;;;14.38;47.67;101059.72;10406835;28;20037;-60
2024/03/21 19:37:26;;;;;;;5.63;3.70;;;;;;;14.33;47.89;101064.81;10401660;28;20042;-58
2024/03/21 19:42:27;;;;;;;4.60;2.83;;;;;;;14.28;48.40;101064.56;10395270;28;20492;-58
2024/03/21 19:47:28;;;;;;;7.95;3.03;;;;;;;14.16;48.90;101066.84;10408308;28;20046;-58
2024/03/21 19:52:28;;;;;;;7.63;3.92;;;;;;;14.09;49.15;101076.69;10391748;28;20186;-58
2024/03/21 19:57:30;;;;;;;5.10;3.83;;;;;;;14.12;49.02;101080.91;10404093;28;20397;-58
2024/03/21 20:02:30;;;;;;;4.65;2.88;;;;;;;14.19;48.76;101084.56;10400424;28;20045;-58
2024/03/21 20:07:31;;;;;;;9.30;3.80;;;;;;;14.19;48.62;101073.75;10407445;28;20076;-59
2024/03/21 20:12:31;;;;;;;4.10;2.70;;;;;;;14.17;48.40;101078.50;10391803;28;20047;-58
2024/03/21 20:17:32;;;;;;;5.65;2.58;;;;;;;14.06;48.39;101077.91;10385351;28;20047;-58
2024/03/21 20:22:33;;;;;;;3.45;2.13;;;;;;;14.01;48.62;101072.19;10440991;23;20045;-59
2024/03/21 20:27:33;;;;;;;5.47;2.60;;;;;;;13.96;48.00;101063.81;10404785;28;20056;-57
2024/03/21 20:32:34;;;;;;;4.55;2.17;;;;;;;13.95;47.69;101062.13;10419717;28;20483;-58
2024/03/21 20:37:35;;;;;;;4.32;1.80;;;;;;;13.94;47.32;101057.75;10406904;28;20060;-58
2024/03/21 20:42:36;;;;;;;4.00;2.72;;;;;;;14.04;47.42;101062.88;10401154;28;20409;-58
2024/03/21 20:47:38;;;;;;;5.72;2.17;;;;;;;14.17;47.05;101065.81;10400808;28;20579;-58
2024/03/21 20:52:38;;;;;;;6.10;3.00;;;;;;;14.22;47.33;101068.00;10406028;28;20033;-58
2024/03/21 20:57:39;;;;;;;4.82;3.30;;;;;;;14.15;47.44;101081.38;10405337;28;20045;-58
2024/03/21 21:02:41;;;;;;;9.32;3.67;;;;;;;14.07;47.98;101079.59;10385815;28;20049;-58
2024/03/21 21:07:42;;;;;;;6.30;3.30;;;;;;;13.95;48.24;101091.00;10394285;28;20102;-58
2024/03/21 21:12:42;;;;;;;4.50;3.05;;;;;;;13.88;48.08;101091.72;10405773;28;20083;-58
2024/03/21 21:17:43;;;;;;;7.25;3.75;;;;;;;13.66;48.91;101098.81;10384141;28;20041;-58
2024/03/21 21:22:44;;;;;;;5.38;3.10;;;;;;;13.61;48.22;101098.47;10385352;28;20050;-58
2024/03/21 21:27:46;;;;;;;6.80;4.80;;;;;;;13.62;48.87;101108.25;10407232;28;20815;-58
2024/03/21 21:32:46;;;;;;;7.60;2.90;;;;;;;13.54;49.22;101107.47;10389181;28;20049;-57
2024/03/21 21:37:47;;;;;;;4.95;2.55;;;;;;;13.46;49.18;101111.03;10390223;28;20075;-59
2024/03/21 21:42:48;;;;;;;4.97;2.55;;;;;;;13.33;49.53;101103.53;10394455;28;20629;-59
2024/03/21 21:47:48;;;;;;;7.43;2.85;;;;;;;13.33;49.85;101108.94;10408379;28;20045;-60
2024/03/21 21:52:49;;;;;;;7.22;3.38;;;;;;;13.28;49.75;101109.41;10406018;28;20524;-59
2024/03/21 21:57:50;;;;;;;8.05;4.43;;;;;;;13.28;50.08;101105.88;10392150;28;20451;-59
2024/03/21 22:02:51;;;;;;;7.93;4.18;;;;;;;13.21;50.27;101100.34;10397370;28;20090;-59
2024/03/21 22:07:51;;;;;;;5.88;4.15;;;;;;;13.23;50.64;101094.72;10395321;28;20069;-59
2024/03/21 22:12:52;;;;;;;6.35;3.15;;;;;;;13.17;50.87;101093.59;10411236;28;20037;-61
2024/03/21 22:17:52;;;;;;;8.68;3.22;;;;;;;13.01;51.04;101086.41;10408660;28;20061;-61
2024/03/21 22:22:53;;;;;;;10.20;4.70;;;;;;;12.90;51.21;101081.38;10396395;28;20069;-61
2024/03/21 22:27:54;;;;;;;9.18;4.13;;;;;;;12.75;51.46;101069.59;10425428;28;20373;-61
2024/03/21 22:32:54;;;;;;;8.23;4.68;;;;;;;12.63;51.83;101072.66;10425829;28;20520;-61
2024/03/21 22:37:55;;;;;;;7.88;4.43;;;;;;;12.53;52.16;101079.25;10423243;28;20594;-61
2024/03/21 22:42:55;;;;;;;8.07;3.67;;;;;;;12.34;52.32;101075.06;10423794;28;20124;-61
2024/03/21 22:47:56;;;;;;;8.88;4.68;;;;;;;12.19;52.76;101088.38;10409777;28;20080;-61
2024/03/21 22:52:56;;;;;;;7.45;4.43;;;;;;;12.08;53.56;101076.06;10420257;28;20049;-62
2024/03/21 22:57:57;;;;;;;10.45;4.88;;;;;;;11.96;53.77;101077.41;10415319;28;20123;-61
2024/03/21 23:02:58;;;;;;;8.15;5.18;;;;;;;11.84;53.75;101074.19;10405989;28;20106;-59
2024/03/21 23:08:00;;;;;;;10.35;5.80;;;;;;;11.76;54.11;101068.78;10419610;28;20056;-59